sensor_id;sensor_type;location;lat;lon;timestamp;temperature;humidity
4755;DHT22;2391;47.212;7.542;2022-12-07T00:01:17;5.00;95.90
4755;DHT22;2391;47.212;7.542;2022-12-07T00:03:22;5.10;96.00
4755;DHT22;2391;47.212;7.542;2022-12-07T00:05:48;5.00;95.90
4755;DHT22;2391;47.212;7.542;2022-12-07T00:08:13;5.00;96.00
4755;DHT22;2391;47.212;7.542;2022-12-07T00:10:39;5.00;96.00
4755;DHT22;2391;47.212;7.542;2022-12-07T00:13:05;5.00;96.00
4755;DHT22;2391;47.212;7.542;2022-12-07T00:15:33;5.00;96.00
4755;DHT22;2391;47.212;7.542;2022-12-07T00:18:00;5.00;96.00
4755;DHT22;2391;47.212;7.542;2022-12-07T00:20:25;5.10;96.00
4755;DHT22;2391;47.212;7.542;2022-12-07T00:22:51;5.10;96.00
4755;DHT22;2391;47.212;7.542;2022-12-07T00:25:17;5.10;96.00
4755;DHT22;2391;47.212;7.542;2022-12-07T00:27:43;5.10;96.00
4755;DHT22;2391;47.212;7.542;2022-12-07T00:30:09;5.10;96.00
4755;DHT22;2391;47.212;7.542;2022-12-07T00:32:34;5.10;96.00
4755;DHT22;2391;47.212;7.542;2022-12-07T00:35:00;5.10;96.00
4755;DHT22;2391;47.212;7.542;2022-12-07T00:37:26;5.00;95.90
4755;DHT22;2391;47.212;7.542;2022-12-07T00:39:51;5.00;96.00
4755;DHT22;2391;47.212;7.542;2022-12-07T00:42:17;4.90;96.10
4755;DHT22;2391;47.212;7.542;2022-12-07T00:44:43;4.90;96.20
4755;DHT22;2391;47.212;7.542;2022-12-07T00:47:09;4.90;96.30
4755;DHT22;2391;47.212;7.542;2022-12-07T00:49:34;4.90;96.20
4755;DHT22;2391;47.212;7.542;2022-12-07T00:52:00;4.90;96.30
4755;DHT22;2391;47.212;7.542;2022-12-07T00:54:29;5.00;96.30
4755;DHT22;2391;47.212;7.542;2022-12-07T00:56:54;5.00;96.30
4755;DHT22;2391;47.212;7.542;2022-12-07T00:59:20;5.00;96.20
4755;DHT22;2391;47.212;7.542;2022-12-07T01:01:46;4.90;96.30
4755;DHT22;2391;47.212;7.542;2022-12-07T01:04:12;5.00;96.30
4755;DHT22;2391;47.212;7.542;2022-12-07T01:06:38;5.00;96.30
4755;DHT22;2391;47.212;7.542;2022-12-07T01:09:04;5.00;96.30
4755;DHT22;2391;47.212;7.542;2022-12-07T01:11:32;5.00;96.40
4755;DHT22;2391;47.212;7.542;2022-12-07T01:13:59;5.00;96.40
4755;DHT22;2391;47.212;7.542;2022-12-07T01:16:28;5.10;96.40
4755;DHT22;2391;47.212;7.542;2022-12-07T01:18:56;5.10;96.40
4755;DHT22;2391;47.212;7.542;2022-12-07T01:21:27;5.10;96.30
4755;DHT22;2391;47.212;7.542;2022-12-07T01:23:53;5.10;96.30
4755;DHT22;2391;47.212;7.542;2022-12-07T01:26:21;5.10;96.30
4755;DHT22;2391;47.212;7.542;2022-12-07T01:28:48;5.10;96.30
4755;DHT22;2391;47.212;7.542;2022-12-07T01:31:16;5.10;96.30
4755;DHT22;2391;47.212;7.542;2022-12-07T01:33:45;5.10;96.30
4755;DHT22;2391;47.212;7.542;2022-12-07T01:38:42;5.10;96.20
4755;DHT22;2391;47.212;7.542;2022-12-07T01:41:08;5.10;96.20
4755;DHT22;2391;47.212;7.542;2022-12-07T01:43:35;4.90;96.30
4755;DHT22;2391;47.212;7.542;2022-12-07T01:46:02;4.80;96.40
4755;DHT22;2391;47.212;7.542;2022-12-07T01:48:32;4.80;96.50
4755;DHT22;2391;47.212;7.542;2022-12-07T01:51:01;4.70;96.50
4755;DHT22;2391;47.212;7.542;2022-12-07T01:53:29;4.60;96.50
4755;DHT22;2391;47.212;7.542;2022-12-07T01:55:56;4.60;96.70
4755;DHT22;2391;47.212;7.542;2022-12-07T01:58:24;4.50;96.70
4755;DHT22;2391;47.212;7.542;2022-12-07T02:00:50;4.40;96.90
4755;DHT22;2391;47.212;7.542;2022-12-07T02:05:49;4.40;97.00
4755;DHT22;2391;47.212;7.542;2022-12-07T02:08:16;4.30;97.10
4755;DHT22;2391;47.212;7.542;2022-12-07T02:10:43;4.30;97.30
4755;DHT22;2391;47.212;7.542;2022-12-07T02:13:12;4.20;97.40
4755;DHT22;2391;47.212;7.542;2022-12-07T02:18:18;4.30;97.40
4755;DHT22;2391;47.212;7.542;2022-12-07T02:21:07;4.20;97.30
4755;DHT22;2391;47.212;7.542;2022-12-07T02:26:32;4.10;97.50
4755;DHT22;2391;47.212;7.542;2022-12-07T02:31:46;4.00;97.70
4755;DHT22;2391;47.212;7.542;2022-12-07T02:34:33;4.00;97.80
4755;DHT22;2391;47.212;7.542;2022-12-07T02:37:00;4.00;97.90
4755;DHT22;2391;47.212;7.542;2022-12-07T02:39:32;4.10;97.90
4755;DHT22;2391;47.212;7.542;2022-12-07T02:42:06;4.10;97.80
4755;DHT22;2391;47.212;7.542;2022-12-07T02:44:31;4.10;97.80
4755;DHT22;2391;47.212;7.542;2022-12-07T02:47:08;4.20;97.80
4755;DHT22;2391;47.212;7.542;2022-12-07T02:49:31;4.20;97.80
4755;DHT22;2391;47.212;7.542;2022-12-07T02:51:57;4.20;97.80
4755;DHT22;2391;47.212;7.542;2022-12-07T02:54:23;4.20;97.80
4755;DHT22;2391;47.212;7.542;2022-12-07T02:56:52;4.20;97.80
4755;DHT22;2391;47.212;7.542;2022-12-07T03:02:35;4.20;97.80
4755;DHT22;2391;47.212;7.542;2022-12-07T03:13:52;3.80;98.30
4755;DHT22;2391;47.212;7.542;2022-12-07T03:21:41;3.80;98.40
4755;DHT22;2391;47.212;7.542;2022-12-07T03:24:17;3.80;98.50
4755;DHT22;2391;47.212;7.542;2022-12-07T03:26:49;3.90;98.50
4755;DHT22;2391;47.212;7.542;2022-12-07T03:29:28;3.90;98.50
4755;DHT22;2391;47.212;7.542;2022-12-07T03:31:59;4.00;98.50
4755;DHT22;2391;47.212;7.542;2022-12-07T03:37:16;4.00;98.40
4755;DHT22;2391;47.212;7.542;2022-12-07T03:42:18;4.00;98.20
4755;DHT22;2391;47.212;7.542;2022-12-07T03:44:44;4.00;98.30
4755;DHT22;2391;47.212;7.542;2022-12-07T03:47:29;4.10;98.30
4755;DHT22;2391;47.212;7.542;2022-12-07T03:52:43;4.10;98.30
4755;DHT22;2391;47.212;7.542;2022-12-07T03:55:18;4.10;98.40
4755;DHT22;2391;47.212;7.542;2022-12-07T03:57:47;4.10;98.30
4755;DHT22;2391;47.212;7.542;2022-12-07T04:00:14;4.20;98.30
4755;DHT22;2391;47.212;7.542;2022-12-07T04:02:41;4.30;98.30
4755;DHT22;2391;47.212;7.542;2022-12-07T04:05:08;4.30;98.00
4755;DHT22;2391;47.212;7.542;2022-12-07T04:07:33;4.40;98.00
4755;DHT22;2391;47.212;7.542;2022-12-07T04:09:59;4.40;98.00
4755;DHT22;2391;47.212;7.542;2022-12-07T04:12:25;4.40;97.80
4755;DHT22;2391;47.212;7.542;2022-12-07T04:14:51;4.50;97.70
4755;DHT22;2391;47.212;7.542;2022-12-07T04:17:16;4.40;97.60
4755;DHT22;2391;47.212;7.542;2022-12-07T04:19:42;4.40;97.60
4755;DHT22;2391;47.212;7.542;2022-12-07T04:22:08;4.30;97.70
4755;DHT22;2391;47.212;7.542;2022-12-07T04:24:34;4.40;97.80
4755;DHT22;2391;47.212;7.542;2022-12-07T04:27:00;4.40;97.80
4755;DHT22;2391;47.212;7.542;2022-12-07T04:29:26;4.50;97.70
4755;DHT22;2391;47.212;7.542;2022-12-07T04:31:52;4.60;97.60
4755;DHT22;2391;47.212;7.542;2022-12-07T04:34:19;4.60;97.50
4755;DHT22;2391;47.212;7.542;2022-12-07T04:36:46;4.60;97.50
4755;DHT22;2391;47.212;7.542;2022-12-07T04:39:30;4.60;97.50
4755;DHT22;2391;47.212;7.542;2022-12-07T04:41:56;4.60;97.40
4755;DHT22;2391;47.212;7.542;2022-12-07T04:44:24;4.60;97.40
4755;DHT22;2391;47.212;7.542;2022-12-07T04:46:51;4.50;97.50
4755;DHT22;2391;47.212;7.542;2022-12-07T04:49:18;4.50;97.50
4755;DHT22;2391;47.212;7.542;2022-12-07T04:51:44;4.50;97.50
4755;DHT22;2391;47.212;7.542;2022-12-07T04:54:11;4.50;97.60
4755;DHT22;2391;47.212;7.542;2022-12-07T04:56:37;4.50;97.60
4755;DHT22;2391;47.212;7.542;2022-12-07T04:59:03;4.50;97.50
4755;DHT22;2391;47.212;7.542;2022-12-07T05:01:29;4.50;97.50
4755;DHT22;2391;47.212;7.542;2022-12-07T05:03:55;4.50;97.60
4755;DHT22;2391;47.212;7.542;2022-12-07T05:06:21;4.50;97.60
4755;DHT22;2391;47.212;7.542;2022-12-07T05:08:47;4.60;97.60
4755;DHT22;2391;47.212;7.542;2022-12-07T05:11:13;4.60;97.50
4755;DHT22;2391;47.212;7.542;2022-12-07T05:13:41;4.70;97.40
4755;DHT22;2391;47.212;7.542;2022-12-07T05:16:07;4.60;97.30
4755;DHT22;2391;47.212;7.542;2022-12-07T05:18:33;4.60;97.50
4755;DHT22;2391;47.212;7.542;2022-12-07T05:20:58;4.60;97.50
4755;DHT22;2391;47.212;7.542;2022-12-07T05:23:24;4.60;97.40
4755;DHT22;2391;47.212;7.542;2022-12-07T05:25:50;4.50;97.30
4755;DHT22;2391;47.212;7.542;2022-12-07T05:28:16;4.50;97.40
4755;DHT22;2391;47.212;7.542;2022-12-07T05:30:41;4.50;97.40
4755;DHT22;2391;47.212;7.542;2022-12-07T05:33:07;4.60;97.40
4755;DHT22;2391;47.212;7.542;2022-12-07T05:35:33;4.60;97.30
4755;DHT22;2391;47.212;7.542;2022-12-07T05:37:58;4.50;97.30
4755;DHT22;2391;47.212;7.542;2022-12-07T05:40:24;4.60;97.40
4755;DHT22;2391;47.212;7.542;2022-12-07T05:42:50;4.60;97.30
4755;DHT22;2391;47.212;7.542;2022-12-07T05:45:16;4.70;97.30
4755;DHT22;2391;47.212;7.542;2022-12-07T05:47:42;4.70;97.20
4755;DHT22;2391;47.212;7.542;2022-12-07T05:50:08;4.80;97.20
4755;DHT22;2391;47.212;7.542;2022-12-07T05:52:33;4.80;97.10
4755;DHT22;2391;47.212;7.542;2022-12-07T05:54:59;4.80;97.10
4755;DHT22;2391;47.212;7.542;2022-12-07T05:57:25;4.80;97.00
4755;DHT22;2391;47.212;7.542;2022-12-07T05:59:51;4.80;97.20
4755;DHT22;2391;47.212;7.542;2022-12-07T06:02:17;4.80;97.20
4755;DHT22;2391;47.212;7.542;2022-12-07T06:04:45;4.80;97.10
4755;DHT22;2391;47.212;7.542;2022-12-07T06:07:13;4.80;97.20
4755;DHT22;2391;47.212;7.542;2022-12-07T06:09:40;4.80;97.20
4755;DHT22;2391;47.212;7.542;2022-12-07T06:12:06;4.90;97.20
4755;DHT22;2391;47.212;7.542;2022-12-07T06:14:52;4.90;97.10
4755;DHT22;2391;47.212;7.542;2022-12-07T06:17:18;4.90;97.10
4755;DHT22;2391;47.212;7.542;2022-12-07T06:19:44;4.90;97.00
4755;DHT22;2391;47.212;7.542;2022-12-07T06:22:10;5.00;97.00
4755;DHT22;2391;47.212;7.542;2022-12-07T06:24:37;5.00;97.10
4755;DHT22;2391;47.212;7.542;2022-12-07T06:27:04;5.00;97.00
4755;DHT22;2391;47.212;7.542;2022-12-07T06:29:30;5.00;96.90
4755;DHT22;2391;47.212;7.542;2022-12-07T06:31:56;5.00;97.00
4755;DHT22;2391;47.212;7.542;2022-12-07T06:34:23;5.00;97.00
4755;DHT22;2391;47.212;7.542;2022-12-07T06:36:50;4.90;97.00
4755;DHT22;2391;47.212;7.542;2022-12-07T06:39:18;5.00;97.00
4755;DHT22;2391;47.212;7.542;2022-12-07T06:41:44;4.90;97.00
4755;DHT22;2391;47.212;7.542;2022-12-07T06:44:10;4.80;97.20
4755;DHT22;2391;47.212;7.542;2022-12-07T06:46:36;4.70;97.30
4755;DHT22;2391;47.212;7.542;2022-12-07T06:49:03;4.80;97.20
4755;DHT22;2391;47.212;7.542;2022-12-07T06:51:29;4.90;97.20
4755;DHT22;2391;47.212;7.542;2022-12-07T06:53:55;4.90;97.20
4755;DHT22;2391;47.212;7.542;2022-12-07T06:56:21;4.90;97.30
4755;DHT22;2391;47.212;7.542;2022-12-07T06:58:49;4.90;97.20
4755;DHT22;2391;47.212;7.542;2022-12-07T07:01:16;5.00;97.20
4755;DHT22;2391;47.212;7.542;2022-12-07T07:03:43;5.00;97.10
4755;DHT22;2391;47.212;7.542;2022-12-07T07:06:10;5.10;97.20
4755;DHT22;2391;47.212;7.542;2022-12-07T07:08:37;5.10;97.00
4755;DHT22;2391;47.212;7.542;2022-12-07T07:11:03;5.00;97.00
4755;DHT22;2391;47.212;7.542;2022-12-07T07:13:29;5.00;97.00
4755;DHT22;2391;47.212;7.542;2022-12-07T07:15:55;5.00;97.10
4755;DHT22;2391;47.212;7.542;2022-12-07T07:18:21;5.00;97.20
4755;DHT22;2391;47.212;7.542;2022-12-07T07:20:47;5.00;97.10
4755;DHT22;2391;47.212;7.542;2022-12-07T07:23:13;5.10;97.10
4755;DHT22;2391;47.212;7.542;2022-12-07T07:25:39;5.10;97.00
4755;DHT22;2391;47.212;7.542;2022-12-07T07:28:05;5.20;97.00
4755;DHT22;2391;47.212;7.542;2022-12-07T07:30:31;5.20;96.90
4755;DHT22;2391;47.212;7.542;2022-12-07T07:32:59;5.20;97.00
4755;DHT22;2391;47.212;7.542;2022-12-07T07:35:27;5.20;97.00
4755;DHT22;2391;47.212;7.542;2022-12-07T07:37:54;5.20;96.90
4755;DHT22;2391;47.212;7.542;2022-12-07T07:40:20;5.20;96.80
4755;DHT22;2391;47.212;7.542;2022-12-07T07:42:54;5.20;97.10
4755;DHT22;2391;47.212;7.542;2022-12-07T07:45:18;5.20;96.90
4755;DHT22;2391;47.212;7.542;2022-12-07T07:47:45;5.30;96.90
4755;DHT22;2391;47.212;7.542;2022-12-07T07:50:11;5.30;96.90
4755;DHT22;2391;47.212;7.542;2022-12-07T07:52:37;5.30;96.90
4755;DHT22;2391;47.212;7.542;2022-12-07T07:55:03;5.30;97.00
4755;DHT22;2391;47.212;7.542;2022-12-07T07:57:29;5.30;96.90
4755;DHT22;2391;47.212;7.542;2022-12-07T07:59:55;5.30;96.90
4755;DHT22;2391;47.212;7.542;2022-12-07T08:02:21;5.40;96.90
4755;DHT22;2391;47.212;7.542;2022-12-07T08:04:47;5.40;96.80
4755;DHT22;2391;47.212;7.542;2022-12-07T08:07:14;5.40;96.80
4755;DHT22;2391;47.212;7.542;2022-12-07T08:09:41;5.40;96.80
4755;DHT22;2391;47.212;7.542;2022-12-07T08:12:07;5.40;96.90
4755;DHT22;2391;47.212;7.542;2022-12-07T08:14:34;5.40;96.80
4755;DHT22;2391;47.212;7.542;2022-12-07T08:17:00;5.40;96.80
4755;DHT22;2391;47.212;7.542;2022-12-07T08:19:26;5.40;96.90
4755;DHT22;2391;47.212;7.542;2022-12-07T08:21:52;5.40;96.90
4755;DHT22;2391;47.212;7.542;2022-12-07T08:24:17;5.40;96.80
4755;DHT22;2391;47.212;7.542;2022-12-07T08:26:43;5.40;96.90
4755;DHT22;2391;47.212;7.542;2022-12-07T08:29:09;5.30;96.90
4755;DHT22;2391;47.212;7.542;2022-12-07T08:31:35;5.30;96.80
4755;DHT22;2391;47.212;7.542;2022-12-07T08:34:01;5.40;96.90
4755;DHT22;2391;47.212;7.542;2022-12-07T08:36:27;5.30;96.80
4755;DHT22;2391;47.212;7.542;2022-12-07T08:38:52;5.30;96.80
4755;DHT22;2391;47.212;7.542;2022-12-07T08:41:18;5.30;96.90
4755;DHT22;2391;47.212;7.542;2022-12-07T08:43:44;5.30;96.90
4755;DHT22;2391;47.212;7.542;2022-12-07T08:46:22;5.30;97.00
4755;DHT22;2391;47.212;7.542;2022-12-07T08:51:33;5.30;96.90
4755;DHT22;2391;47.212;7.542;2022-12-07T08:54:01;5.30;96.90
4755;DHT22;2391;47.212;7.542;2022-12-07T08:56:28;5.30;97.00
4755;DHT22;2391;47.212;7.542;2022-12-07T08:58:54;5.30;97.00
4755;DHT22;2391;47.212;7.542;2022-12-07T09:01:20;5.30;97.00
4755;DHT22;2391;47.212;7.542;2022-12-07T09:03:46;5.30;97.10
4755;DHT22;2391;47.212;7.542;2022-12-07T09:06:12;5.40;97.10
4755;DHT22;2391;47.212;7.542;2022-12-07T09:08:41;5.40;97.00
4755;DHT22;2391;47.212;7.542;2022-12-07T09:11:08;5.40;97.10
4755;DHT22;2391;47.212;7.542;2022-12-07T09:13:34;5.50;97.10
4755;DHT22;2391;47.212;7.542;2022-12-07T09:16:00;5.50;97.00
4755;DHT22;2391;47.212;7.542;2022-12-07T09:18:26;5.50;97.00
4755;DHT22;2391;47.212;7.542;2022-12-07T09:20:52;5.50;97.10
4755;DHT22;2391;47.212;7.542;2022-12-07T09:23:18;5.50;97.10
4755;DHT22;2391;47.212;7.542;2022-12-07T09:25:43;5.50;97.10
4755;DHT22;2391;47.212;7.542;2022-12-07T09:28:09;5.50;97.10
4755;DHT22;2391;47.212;7.542;2022-12-07T09:30:35;5.50;96.90
4755;DHT22;2391;47.212;7.542;2022-12-07T09:33:01;5.50;97.00
4755;DHT22;2391;47.212;7.542;2022-12-07T09:35:27;5.50;96.90
4755;DHT22;2391;47.212;7.542;2022-12-07T09:37:53;5.60;96.90
4755;DHT22;2391;47.212;7.542;2022-12-07T09:40:20;5.60;96.90
4755;DHT22;2391;47.212;7.542;2022-12-07T09:42:49;5.50;96.80
4755;DHT22;2391;47.212;7.542;2022-12-07T09:45:29;5.50;96.80
4755;DHT22;2391;47.212;7.542;2022-12-07T09:47:54;5.50;96.90
4755;DHT22;2391;47.212;7.542;2022-12-07T09:50:26;5.50;97.00
4755;DHT22;2391;47.212;7.542;2022-12-07T09:52:53;5.50;96.90
4755;DHT22;2391;47.212;7.542;2022-12-07T09:55:28;5.50;96.90
4755;DHT22;2391;47.212;7.542;2022-12-07T09:57:55;5.50;96.90
4755;DHT22;2391;47.212;7.542;2022-12-07T10:00:22;5.50;96.90
4755;DHT22;2391;47.212;7.542;2022-12-07T10:05:36;5.60;96.70
4755;DHT22;2391;47.212;7.542;2022-12-07T10:08:03;5.60;96.70
4755;DHT22;2391;47.212;7.542;2022-12-07T10:10:34;5.60;96.70
4755;DHT22;2391;47.212;7.542;2022-12-07T10:13:04;5.60;96.80
4755;DHT22;2391;47.212;7.542;2022-12-07T10:21:11;5.60;97.10
4755;DHT22;2391;47.212;7.542;2022-12-07T10:23:41;5.50;96.70
4755;DHT22;2391;47.212;7.542;2022-12-07T10:26:32;5.40;96.80
4755;DHT22;2391;47.212;7.542;2022-12-07T10:31:40;5.50;97.00
4755;DHT22;2391;47.212;7.542;2022-12-07T10:34:20;5.50;97.00
4755;DHT22;2391;47.212;7.542;2022-12-07T10:36:42;5.40;97.00
4755;DHT22;2391;47.212;7.542;2022-12-07T10:39:13;5.40;97.00
4755;DHT22;2391;47.212;7.542;2022-12-07T10:42:00;5.40;97.20
4755;DHT22;2391;47.212;7.542;2022-12-07T10:44:28;5.40;97.20
4755;DHT22;2391;47.212;7.542;2022-12-07T10:54:59;5.50;97.40
4755;DHT22;2391;47.212;7.542;2022-12-07T11:00:22;5.70;97.00
4755;DHT22;2391;47.212;7.542;2022-12-07T11:05:59;5.80;97.00
4755;DHT22;2391;47.212;7.542;2022-12-07T11:08:39;5.80;97.00
4755;DHT22;2391;47.212;7.542;2022-12-07T11:11:06;5.80;96.90
4755;DHT22;2391;47.212;7.542;2022-12-07T11:16:30;5.90;96.90
4755;DHT22;2391;47.212;7.542;2022-12-07T11:19:10;5.90;96.90
4755;DHT22;2391;47.212;7.542;2022-12-07T11:21:42;5.80;96.90
4755;DHT22;2391;47.212;7.542;2022-12-07T11:24:18;5.70;96.80
4755;DHT22;2391;47.212;7.542;2022-12-07T11:37:46;5.80;96.80
4755;DHT22;2391;47.212;7.542;2022-12-07T11:40:30;5.80;96.70
4755;DHT22;2391;47.212;7.542;2022-12-07T11:45:46;5.90;96.80
4755;DHT22;2391;47.212;7.542;2022-12-07T11:48:20;5.90;96.80
4755;DHT22;2391;47.212;7.542;2022-12-07T11:56:11;5.90;96.70
4755;DHT22;2391;47.212;7.542;2022-12-07T11:58:55;5.90;96.50
4755;DHT22;2391;47.212;7.542;2022-12-07T12:01:40;6.00;96.60
4755;DHT22;2391;47.212;7.542;2022-12-07T12:06:41;6.00;96.50
4755;DHT22;2391;47.212;7.542;2022-12-07T12:23:20;6.20;96.30
4755;DHT22;2391;47.212;7.542;2022-12-07T12:25:49;6.20;96.30
4755;DHT22;2391;47.212;7.542;2022-12-07T12:33:44;6.20;96.20
4755;DHT22;2391;47.212;7.542;2022-12-07T12:38:52;6.00;96.30
4755;DHT22;2391;47.212;7.542;2022-12-07T12:54:36;5.90;96.40
4755;DHT22;2391;47.212;7.542;2022-12-07T12:57:24;5.90;96.40
4755;DHT22;2391;47.212;7.542;2022-12-07T13:02:27;5.90;96.50
4755;DHT22;2391;47.212;7.542;2022-12-07T13:10:33;6.00;96.70
4755;DHT22;2391;47.212;7.542;2022-12-07T13:15:54;6.00;96.60
4755;DHT22;2391;47.212;7.542;2022-12-07T13:29:13;6.10;96.40
4755;DHT22;2391;47.212;7.542;2022-12-07T13:34:33;6.20;96.40
4755;DHT22;2391;47.212;7.542;2022-12-07T13:39:50;6.30;96.20
4755;DHT22;2391;47.212;7.542;2022-12-07T13:42:31;6.40;96.00
4755;DHT22;2391;47.212;7.542;2022-12-07T13:44:57;6.40;96.00
4755;DHT22;2391;47.212;7.542;2022-12-07T13:47:44;6.50;96.00
4755;DHT22;2391;47.212;7.542;2022-12-07T13:50:23;6.50;96.00
4755;DHT22;2391;47.212;7.542;2022-12-07T13:52:49;6.50;95.90
4755;DHT22;2391;47.212;7.542;2022-12-07T13:55:16;6.50;95.90
4755;DHT22;2391;47.212;7.542;2022-12-07T13:57:44;6.40;95.80
4755;DHT22;2391;47.212;7.542;2022-12-07T14:00:17;6.40;96.00
4755;DHT22;2391;47.212;7.542;2022-12-07T14:05:30;6.40;96.10
4755;DHT22;2391;47.212;7.542;2022-12-07T14:07:59;6.50;96.10
4755;DHT22;2391;47.212;7.542;2022-12-07T14:12:56;6.60;96.00
4755;DHT22;2391;47.212;7.542;2022-12-07T14:15:32;6.70;95.90
4755;DHT22;2391;47.212;7.542;2022-12-07T14:17:56;6.70;95.80
4755;DHT22;2391;47.212;7.542;2022-12-07T14:23:05;6.70;95.70
4755;DHT22;2391;47.212;7.542;2022-12-07T14:25:49;6.80;95.70
4755;DHT22;2391;47.212;7.542;2022-12-07T14:28:31;6.80;95.60
4755;DHT22;2391;47.212;7.542;2022-12-07T14:30:54;6.80;95.60
4755;DHT22;2391;47.212;7.542;2022-12-07T14:33:21;6.80;95.60
4755;DHT22;2391;47.212;7.542;2022-12-07T14:35:47;6.80;95.60
4755;DHT22;2391;47.212;7.542;2022-12-07T14:38:13;6.80;95.50
4755;DHT22;2391;47.212;7.542;2022-12-07T14:40:39;6.80;95.50
4755;DHT22;2391;47.212;7.542;2022-12-07T14:43:16;6.80;95.50
4755;DHT22;2391;47.212;7.542;2022-12-07T14:45:42;6.80;95.50
4755;DHT22;2391;47.212;7.542;2022-12-07T14:48:12;6.90;95.50
4755;DHT22;2391;47.212;7.542;2022-12-07T14:50:44;6.90;95.50
4755;DHT22;2391;47.212;7.542;2022-12-07T14:53:16;6.90;95.60
4755;DHT22;2391;47.212;7.542;2022-12-07T14:55:42;6.90;95.50
4755;DHT22;2391;47.212;7.542;2022-12-07T14:58:16;6.90;95.50
4755;DHT22;2391;47.212;7.542;2022-12-07T15:00:43;6.90;95.60
4755;DHT22;2391;47.212;7.542;2022-12-07T15:03:09;6.90;95.50
4755;DHT22;2391;47.212;7.542;2022-12-07T15:05:36;6.90;95.50
4755;DHT22;2391;47.212;7.542;2022-12-07T15:08:03;6.90;95.50
4755;DHT22;2391;47.212;7.542;2022-12-07T15:10:31;7.00;95.60
4755;DHT22;2391;47.212;7.542;2022-12-07T15:12:59;7.00;95.60
4755;DHT22;2391;47.212;7.542;2022-12-07T15:15:28;7.00;95.50
4755;DHT22;2391;47.212;7.542;2022-12-07T15:17:53;7.00;95.40
4755;DHT22;2391;47.212;7.542;2022-12-07T15:20:20;6.90;95.40
4755;DHT22;2391;47.212;7.542;2022-12-07T15:22:46;6.90;95.70
4755;DHT22;2391;47.212;7.542;2022-12-07T15:25:14;6.90;95.30
4755;DHT22;2391;47.212;7.542;2022-12-07T15:27:40;6.90;95.30
4755;DHT22;2391;47.212;7.542;2022-12-07T15:30:07;6.90;95.20
4755;DHT22;2391;47.212;7.542;2022-12-07T15:32:33;6.90;95.20
4755;DHT22;2391;47.212;7.542;2022-12-07T15:34:58;6.90;95.10
4755;DHT22;2391;47.212;7.542;2022-12-07T15:37:24;6.90;95.10
4755;DHT22;2391;47.212;7.542;2022-12-07T15:39:50;6.90;95.10
4755;DHT22;2391;47.212;7.542;2022-12-07T15:42:16;6.80;95.10
4755;DHT22;2391;47.212;7.542;2022-12-07T15:44:41;6.80;95.10
4755;DHT22;2391;47.212;7.542;2022-12-07T15:47:26;6.70;95.10
4755;DHT22;2391;47.212;7.542;2022-12-07T15:49:52;6.70;95.10
4755;DHT22;2391;47.212;7.542;2022-12-07T15:52:17;6.60;95.10
4755;DHT22;2391;47.212;7.542;2022-12-07T15:54:44;6.60;95.10
4755;DHT22;2391;47.212;7.542;2022-12-07T15:57:10;6.50;95.10
4755;DHT22;2391;47.212;7.542;2022-12-07T15:59:36;6.50;95.10
4755;DHT22;2391;47.212;7.542;2022-12-07T16:02:01;6.40;95.20
4755;DHT22;2391;47.212;7.542;2022-12-07T16:04:28;6.30;95.10
4755;DHT22;2391;47.212;7.542;2022-12-07T16:06:56;6.30;95.20
4755;DHT22;2391;47.212;7.542;2022-12-07T16:09:22;6.20;95.10
4755;DHT22;2391;47.212;7.542;2022-12-07T16:11:48;6.20;95.20
4755;DHT22;2391;47.212;7.542;2022-12-07T16:14:15;6.20;95.40
4755;DHT22;2391;47.212;7.542;2022-12-07T16:16:41;6.20;95.10
4755;DHT22;2391;47.212;7.542;2022-12-07T16:19:08;6.10;95.00
4755;DHT22;2391;47.212;7.542;2022-12-07T16:21:34;6.10;95.00
4755;DHT22;2391;47.212;7.542;2022-12-07T16:24:01;6.10;94.90
4755;DHT22;2391;47.212;7.542;2022-12-07T16:26:27;6.10;95.00
4755;DHT22;2391;47.212;7.542;2022-12-07T16:28:53;6.00;94.90
4755;DHT22;2391;47.212;7.542;2022-12-07T16:31:23;6.00;94.90
4755;DHT22;2391;47.212;7.542;2022-12-07T16:33:52;6.00;94.80
4755;DHT22;2391;47.212;7.542;2022-12-07T16:36:18;5.90;94.80
4755;DHT22;2391;47.212;7.542;2022-12-07T16:38:44;5.90;94.80
4755;DHT22;2391;47.212;7.542;2022-12-07T16:41:11;5.70;94.80
4755;DHT22;2391;47.212;7.542;2022-12-07T16:43:37;5.60;94.90
4755;DHT22;2391;47.212;7.542;2022-12-07T16:46:03;5.50;95.00
4755;DHT22;2391;47.212;7.542;2022-12-07T16:48:29;5.50;95.00
4755;DHT22;2391;47.212;7.542;2022-12-07T16:50:55;5.40;95.10
4755;DHT22;2391;47.212;7.542;2022-12-07T16:53:23;5.40;95.10
4755;DHT22;2391;47.212;7.542;2022-12-07T16:55:50;5.40;95.10
4755;DHT22;2391;47.212;7.542;2022-12-07T16:58:16;5.30;95.10
4755;DHT22;2391;47.212;7.542;2022-12-07T17:00:43;5.30;95.10
4755;DHT22;2391;47.212;7.542;2022-12-07T17:03:10;5.30;95.00
4755;DHT22;2391;47.212;7.542;2022-12-07T17:05:41;5.30;95.00
4755;DHT22;2391;47.212;7.542;2022-12-07T17:08:08;5.30;95.00
4755;DHT22;2391;47.212;7.542;2022-12-07T17:10:37;5.20;95.00
4755;DHT22;2391;47.212;7.542;2022-12-07T17:13:04;5.20;94.90
4755;DHT22;2391;47.212;7.542;2022-12-07T17:15:33;5.20;95.00
4755;DHT22;2391;47.212;7.542;2022-12-07T17:17:59;5.20;95.00
4755;DHT22;2391;47.212;7.542;2022-12-07T17:20:26;5.20;94.90
4755;DHT22;2391;47.212;7.542;2022-12-07T17:22:52;5.10;94.90
4755;DHT22;2391;47.212;7.542;2022-12-07T17:25:19;5.10;95.00
4755;DHT22;2391;47.212;7.542;2022-12-07T17:27:46;5.00;95.00
4755;DHT22;2391;47.212;7.542;2022-12-07T17:30:13;5.00;95.00
4755;DHT22;2391;47.212;7.542;2022-12-07T17:32:39;5.00;94.90
4755;DHT22;2391;47.212;7.542;2022-12-07T17:35:05;5.00;94.90
4755;DHT22;2391;47.212;7.542;2022-12-07T17:37:32;5.00;94.90
4755;DHT22;2391;47.212;7.542;2022-12-07T17:39:58;5.00;94.90
4755;DHT22;2391;47.212;7.542;2022-12-07T17:42:25;4.90;94.90
4755;DHT22;2391;47.212;7.542;2022-12-07T17:45:09;4.90;94.80
4755;DHT22;2391;47.212;7.542;2022-12-07T17:47:36;4.90;94.90
4755;DHT22;2391;47.212;7.542;2022-12-07T17:50:04;4.90;94.90
4755;DHT22;2391;47.212;7.542;2022-12-07T17:52:30;4.90;94.80
4755;DHT22;2391;47.212;7.542;2022-12-07T17:55:15;4.80;94.80
4755;DHT22;2391;47.212;7.542;2022-12-07T17:57:40;4.80;94.70
4755;DHT22;2391;47.212;7.542;2022-12-07T18:00:07;4.80;94.90
4755;DHT22;2391;47.212;7.542;2022-12-07T18:02:34;4.70;94.80
4755;DHT22;2391;47.212;7.542;2022-12-07T18:05:00;4.70;94.80
4755;DHT22;2391;47.212;7.542;2022-12-07T18:07:25;4.60;95.00
4755;DHT22;2391;47.212;7.542;2022-12-07T18:09:51;4.60;95.00
4755;DHT22;2391;47.212;7.542;2022-12-07T18:12:17;4.60;95.10
4755;DHT22;2391;47.212;7.542;2022-12-07T18:14:43;4.70;95.10
4755;DHT22;2391;47.212;7.542;2022-12-07T18:17:09;4.60;95.00
4755;DHT22;2391;47.212;7.542;2022-12-07T18:19:35;4.70;94.90
4755;DHT22;2391;47.212;7.542;2022-12-07T18:22:03;4.70;95.00
4755;DHT22;2391;47.212;7.542;2022-12-07T18:24:30;4.60;94.80
4755;DHT22;2391;47.212;7.542;2022-12-07T18:26:55;4.60;94.90
4755;DHT22;2391;47.212;7.542;2022-12-07T18:29:21;4.60;95.30
4755;DHT22;2391;47.212;7.542;2022-12-07T18:31:47;4.60;95.00
4755;DHT22;2391;47.212;7.542;2022-12-07T18:34:15;4.60;94.90
4755;DHT22;2391;47.212;7.542;2022-12-07T18:36:43;4.70;94.90
4755;DHT22;2391;47.212;7.542;2022-12-07T18:39:13;4.70;94.80
4755;DHT22;2391;47.212;7.542;2022-12-07T18:41:40;4.70;94.70
4755;DHT22;2391;47.212;7.542;2022-12-07T18:44:06;4.70;94.60
4755;DHT22;2391;47.212;7.542;2022-12-07T18:46:33;4.60;94.60
4755;DHT22;2391;47.212;7.542;2022-12-07T18:48:59;4.60;94.70
4755;DHT22;2391;47.212;7.542;2022-12-07T18:51:26;4.60;94.60
4755;DHT22;2391;47.212;7.542;2022-12-07T18:53:57;4.50;94.50
4755;DHT22;2391;47.212;7.542;2022-12-07T18:56:26;4.50;94.50
4755;DHT22;2391;47.212;7.542;2022-12-07T18:58:57;4.50;94.60
4755;DHT22;2391;47.212;7.542;2022-12-07T19:01:43;4.40;94.60
4755;DHT22;2391;47.212;7.542;2022-12-07T19:04:09;4.40;94.80